Time;durP1;ratioP1;P1;durP2;ratioP2;P2;SDS_P1;SDS_P2;PMS_P1;PMS_P2;Temp;Humidity;BMP_temperature;BMP_pressure;BME280_temperature;BME280_humidity;BME280_pressure;Samples;Min_cycle;Max_cycle;Signal;HPM_P1;HPM_P2
2022/02/16 00:01:41;;;;;;;49.72;34.25;;;;;;;2.48;100.00;100803.78;4994075;28;20033;-70
2022/02/16 00:04:06;;;;;;;53.50;36.05;;;;;;;2.81;100.00;100759.19;4994622;28;20038;-70
2022/02/16 00:06:32;;;;;;;56.83;38.45;;;;;;;2.51;100.00;100793.81;4994311;28;20121;-71
2022/02/16 00:08:57;;;;;;;64.72;42.08;;;;;;;2.71;100.00;100759.88;4994053;28;20031;-71
2022/02/16 00:11:22;;;;;;;70.57;46.22;;;;;;;3.04;100.00;100782.97;4994664;28;20485;-71
2022/02/16 00:13:48;;;;;;;78.40;48.97;;;;;;;1.94;100.00;100723.38;4994251;28;20038;-71
2022/02/16 00:16:13;;;;;;;74.53;47.90;;;;;;;2.49;100.00;100755.31;4994226;28;20026;-70
2022/02/16 00:18:39;;;;;;;72.47;46.85;;;;;;;2.57;100.00;100763.81;4993826;28;20027;-70
2022/02/16 00:21:06;;;;;;;78.68;48.00;;;;;;;2.70;100.00;100782.41;4993899;28;20034;-70
2022/02/16 00:23:31;;;;;;;73.35;46.78;;;;;;;2.28;100.00;100770.81;5008812;28;20506;-71
2022/02/16 00:25:59;;;;;;;70.45;44.58;;;;;;;2.13;100.00;100740.47;4993486;28;20042;-71
2022/02/16 00:28:26;;;;;;;52.08;34.45;;;;;;;2.02;100.00;100736.06;5008911;28;20515;-71
2022/02/16 00:30:51;;;;;;;41.10;29.77;;;;;;;2.37;100.00;100775.16;4993014;28;20527;-71
2022/02/16 00:33:17;;;;;;;44.03;29.05;;;;;;;2.05;100.00;100753.66;4993727;28;20067;-70
2022/02/16 00:35:42;;;;;;;39.33;28.25;;;;;;;2.48;100.00;100777.03;4993551;28;20026;-70
2022/02/16 00:38:08;;;;;;;42.25;28.30;;;;;;;2.24;100.00;100711.41;4993347;28;20112;-67
2022/02/16 00:40:33;;;;;;;42.22;29.92;;;;;;;2.14;100.00;100768.91;4993393;28;20030;-70
2022/02/16 00:42:59;;;;;;;53.33;37.10;;;;;;;2.13;100.00;100769.69;4993802;28;20034;-71
2022/02/16 00:45:24;;;;;;;63.50;40.63;;;;;;;2.51;100.00;100753.69;4993642;28;20424;-70
2022/02/16 00:47:50;;;;;;;74.20;49.78;;;;;;;2.55;100.00;100755.41;4993680;28;20030;-70
2022/02/16 00:50:16;;;;;;;74.00;45.00;;;;;;;2.02;100.00;100731.06;4993254;28;20022;-70
2022/02/16 00:52:41;;;;;;;62.90;41.40;;;;;;;2.29;100.00;100732.41;4991942;28;20113;-70
2022/02/16 00:55:07;;;;;;;65.13;40.58;;;;;;;2.27;100.00;100768.28;4992227;28;20578;-70
2022/02/16 00:57:33;;;;;;;58.33;38.17;;;;;;;2.54;100.00;100774.63;4992872;28;20504;-70
2022/02/16 00:59:59;;;;;;;57.42;37.05;;;;;;;2.22;100.00;100773.22;4992712;28;20056;-69
2022/02/16 01:02:26;;;;;;;49.05;33.70;;;;;;;2.40;100.00;100767.69;4710573;23;9999975;-61
2022/02/16 01:04:51;;;;;;;50.10;33.58;;;;;;;1.82;100.00;100705.63;4990748;28;20042;-61
2022/02/16 01:07:17;;;;;;;49.65;33.80;;;;;;;1.87;100.00;100706.53;4992375;28;20388;-61
2022/02/16 01:09:42;;;;;;;51.45;33.08;;;;;;;1.63;100.00;100689.41;4992279;28;20109;-64
2022/02/16 01:12:08;;;;;;;63.30;41.03;;;;;;;1.19;100.00;100679.31;4991726;28;20030;-61
2022/02/16 01:14:33;;;;;;;79.15;51.45;;;;;;;1.39;100.00;100713.09;4991485;28;20034;-61
2022/02/16 01:16:59;;;;;;;178.95;132.65;;;;;;;1.30;100.00;100605.25;4991860;28;20065;-61
2022/02/16 01:19:25;;;;;;;65.75;44.42;;;;;;;1.98;100.00;100736.84;4991820;28;20056;-61
2022/02/16 01:21:50;;;;;;;70.00;49.55;;;;;;;1.30;100.00;100657.84;4991836;28;20514;-62
2022/02/16 01:24:16;;;;;;;69.15;46.42;;;;;;;1.41;100.00;100673.91;4992055;28;20030;-62
2022/02/16 01:26:41;;;;;;;57.00;37.78;;;;;;;1.63;100.00;100729.47;4991750;28;20026;-62
2022/02/16 01:29:06;;;;;;;51.25;36.53;;;;;;;1.76;100.00;100647.88;4991789;28;20026;-62
2022/02/16 01:31:32;;;;;;;61.33;39.58;;;;;;;2.19;100.00;100720.50;4990310;28;20034;-62
2022/02/16 01:33:57;;;;;;;55.85;36.90;;;;;;;2.09;100.00;100725.34;4991189;28;20100;-62
2022/02/16 01:36:23;;;;;;;54.72;35.00;;;;;;;1.93;100.00;100638.13;4990697;28;20259;-62
2022/02/16 01:38:48;;;;;;;46.28;30.00;;;;;;;1.67;100.00;100642.69;4991815;28;20041;-62
2022/02/16 01:41:15;;;;;;;55.67;34.83;;;;;;;1.71;100.00;100664.47;4991275;28;20030;-62
2022/02/16 01:43:49;;;;;;;47.42;31.52;;;;;;;1.49;100.00;100654.84;5006381;28;20125;-63
2022/02/16 01:46:15;;;;;;;62.50;36.35;;;;;;;1.88;100.00;100657.28;4991161;28;20034;-62
2022/02/16 01:48:41;;;;;;;64.07;38.13;;;;;;;1.34;100.00;100670.44;4991290;28;20100;-62
2022/02/16 01:51:06;;;;;;;81.07;44.58;;;;;;;1.30;100.00;100662.84;4991368;28;20519;-62
2022/02/16 01:53:32;;;;;;;89.55;52.35;;;;;;;1.58;100.00;100722.69;4991101;28;20026;-62
2022/02/16 01:55:57;;;;;;;85.80;53.92;;;;;;;1.65;100.00;100712.81;4991394;28;20022;-61
2022/02/16 01:58:23;;;;;;;86.30;55.83;;;;;;;1.81;100.00;100693.91;4991459;28;20032;-62
2022/02/16 02:00:49;;;;;;;88.45;63.83;;;;;;;1.44;100.00;100652.28;4989434;28;20126;-61
2022/02/16 02:03:14;;;;;;;65.38;42.30;;;;;;;1.32;100.00;100656.19;4991343;28;20133;-62
2022/02/16 02:05:40;;;;;;;49.85;32.63;;;;;;;1.57;100.00;100708.47;5005910;28;20092;-62
2022/02/16 02:08:06;;;;;;;49.95;32.33;;;;;;;1.38;100.00;100659.69;4991139;28;20035;-62
2022/02/16 02:10:31;;;;;;;46.63;28.67;;;;;;;1.81;100.00;100680.53;4991258;28;20038;-62
2022/02/16 02:12:57;;;;;;;54.58;32.22;;;;;;;1.40;100.00;100663.06;4990759;28;20050;-62
2022/02/16 02:15:24;;;;;;;60.08;33.15;;;;;;;1.54;100.00;100693.38;4989487;28;20121;-64
2022/02/16 02:17:50;;;;;;;58.92;32.33;;;;;;;1.69;100.00;100682.00;5006018;28;20030;-62
2022/02/16 02:20:19;;;;;;;58.08;33.45;;;;;;;1.09;100.00;100679.94;4990938;28;20034;-62
2022/02/16 02:22:44;;;;;;;54.95;30.90;;;;;;;0.71;100.00;100589.03;4991067;28;20023;-62
2022/02/16 02:25:10;;;;;;;55.15;30.45;;;;;;;0.68;100.00;100621.47;4991075;28;20037;-61
2022/02/16 02:27:35;;;;;;;58.88;31.48;;;;;;;1.29;100.00;100669.50;4991061;28;20503;-61
2022/02/16 02:30:01;;;;;;;59.20;33.10;;;;;;;0.63;100.00;100613.03;4990879;28;20026;-62
2022/02/16 02:32:26;;;;;;;55.58;31.50;;;;;;;0.46;100.00;100592.66;4991176;28;20521;-63
2022/02/16 02:34:53;;;;;;;71.70;33.30;;;;;;;0.74;100.00;100694.16;4990971;28;20027;-61
2022/02/16 02:37:18;;;;;;;79.43;34.03;;;;;;;0.84;100.00;100663.53;4989723;28;20034;-64
2022/02/16 02:39:44;;;;;;;116.30;34.60;;;;;;;0.64;100.00;100693.09;4990870;28;20042;-61
2022/02/16 02:42:09;;;;;;;72.72;33.38;;;;;;;1.09;100.00;100687.44;4989412;28;20192;-61
2022/02/16 02:44:35;;;;;;;75.60;33.13;;;;;;;0.72;100.00;100600.72;4989416;28;20030;-63
2022/02/16 02:47:01;;;;;;;170.95;33.83;;;;;;;0.97;100.00;100695.50;4990693;28;20122;-61
2022/02/16 02:49:27;;;;;;;178.63;41.17;;;;;;;0.44;100.00;100640.94;4994194;28;20066;-63
2022/02/16 02:51:52;;;;;;;103.57;37.72;;;;;;;0.83;100.00;100636.84;4995047;28;20554;-62
2022/02/16 02:54:18;;;;;;;81.03;35.05;;;;;;;0.85;100.00;100697.75;4995105;28;20097;-62
2022/02/16 02:56:43;;;;;;;184.40;36.80;;;;;;;0.25;100.00;100634.66;4994686;28;20480;-62
2022/02/16 02:59:09;;;;;;;79.13;33.22;;;;;;;0.99;100.00;100668.03;4994474;28;20465;-62
2022/02/16 03:01:34;;;;;;;112.43;37.03;;;;;;;0.23;100.00;100577.94;4994320;28;20026;-61
2022/02/16 03:04:00;;;;;;;81.97;37.95;;;;;;;0.63;100.00;100701.44;4994579;28;20026;-62
2022/02/16 03:06:25;;;;;;;69.93;31.90;;;;;;;0.15;100.00;100711.88;4994765;28;20038;-62
2022/02/16 03:08:50;;;;;;;86.10;34.10;;;;;;;-0.21;100.00;100705.13;4994515;28;20511;-61
2022/02/16 03:11:19;;;;;;;98.32;37.40;;;;;;;-0.20;100.00;100639.34;4994222;28;20060;-61
2022/02/16 03:13:47;;;;;;;109.75;39.38;;;;;;;-0.57;100.00;100638.34;4994327;28;20125;-63
2022/02/16 03:16:12;;;;;;;139.52;41.95;;;;;;;0.03;100.00;100706.56;4994101;28;20065;-61
2022/02/16 03:18:37;;;;;;;139.63;42.90;;;;;;;-0.54;100.00;100631.81;4994177;28;20030;-62
2022/02/16 03:21:03;;;;;;;109.10;39.92;;;;;;;0.38;100.00;100700.78;4992975;28;20037;-62
2022/02/16 03:23:28;;;;;;;145.35;41.28;;;;;;;0.07;100.00;100705.84;4994548;28;20504;-62
2022/02/16 03:25:54;;;;;;;109.65;41.13;;;;;;;-0.10;100.00;100637.97;5009051;28;20489;-62
2022/02/16 03:28:19;;;;;;;144.15;41.83;;;;;;;0.16;100.00;100704.41;4994111;28;20475;-62
2022/02/16 03:30:44;;;;;;;108.65;39.92;;;;;;;-0.40;100.00;100585.59;4992452;28;20042;-62
2022/02/16 03:33:10;;;;;;;97.00;38.78;;;;;;;0.46;100.00;100709.31;4993931;28;20089;-62
2022/02/16 03:35:35;;;;;;;89.45;38.22;;;;;;;0.34;100.00;100699.00;4993907;28;20052;-62
2022/02/16 03:38:01;;;;;;;91.82;38.13;;;;;;;0.30;100.00;100708.09;5008916;28;20026;-63
2022/02/16 03:40:26;;;;;;;85.28;37.35;;;;;;;0.65;100.00;100701.47;5008678;28;20026;-61
2022/02/16 03:42:52;;;;;;;87.95;38.00;;;;;;;0.47;100.00;100646.00;4994385;28;20501;-61
2022/02/16 03:45:18;;;;;;;94.40;41.03;;;;;;;0.16;100.00;100701.09;4992210;28;20034;-62
2022/02/16 03:47:44;;;;;;;90.65;39.83;;;;;;;0.96;100.00;100673.81;4993888;28;20026;-62
2022/02/16 03:50:10;;;;;;;98.05;41.55;;;;;;;0.69;100.00;100640.69;4994028;28;20064;-61
2022/02/16 03:52:35;;;;;;;96.63;40.58;;;;;;;0.60;100.00;100666.34;4994081;28;20065;-62
2022/02/16 03:55:01;;;;;;;93.25;39.08;;;;;;;0.58;100.00;100634.59;4993602;28;20041;-62
2022/02/16 03:57:26;;;;;;;98.00;40.28;;;;;;;0.41;100.00;100628.38;4993839;28;20527;-62
2022/02/16 03:59:52;;;;;;;88.88;42.15;;;;;;;0.72;100.00;100673.25;4992265;28;20542;-62
2022/02/16 04:02:17;;;;;;;85.47;40.30;;;;;;;0.76;100.00;100650.00;4993424;28;20047;-62
2022/02/16 04:04:43;;;;;;;80.00;37.50;;;;;;;0.70;100.00;100680.75;4992038;28;20040;-62
2022/02/16 04:07:08;;;;;;;74.85;35.95;;;;;;;0.41;100.00;100630.88;4993420;28;20027;-62
2022/02/16 04:09:34;;;;;;;76.85;37.50;;;;;;;0.86;100.00;100659.41;4993190;28;20038;-62
2022/02/16 04:11:59;;;;;;;76.25;37.17;;;;;;;-0.10;100.00;100618.81;4992091;28;20065;-61
2022/02/16 04:14:25;;;;;;;73.25;36.13;;;;;;;0.49;100.00;100669.41;4992959;28;20023;-61
2022/02/16 04:16:50;;;;;;;54.47;31.98;;;;;;;0.57;100.00;100686.28;4993488;28;20093;-61
2022/02/16 04:19:15;;;;;;;78.75;41.47;;;;;;;0.49;100.00;100620.25;4993108;28;20038;-61
2022/02/16 04:21:41;;;;;;;60.55;34.63;;;;;;;0.86;100.00;100641.88;4993155;28;20093;-62
2022/02/16 04:24:07;;;;;;;76.45;38.75;;;;;;;0.74;100.00;100686.66;4993088;28;20026;-62
2022/02/16 04:26:32;;;;;;;78.75;44.90;;;;;;;0.47;100.00;100691.03;4991824;28;20023;-61
2022/02/16 04:28:58;;;;;;;81.45;46.20;;;;;;;1.10;100.00;100684.97;4992784;28;20034;-61
2022/02/16 04:31:23;;;;;;;94.97;50.80;;;;;;;1.15;100.00;100690.06;4992874;28;20045;-61
2022/02/16 04:33:48;;;;;;;81.97;44.85;;;;;;;1.16;100.00;100681.75;4992998;28;20037;-62
2022/02/16 04:36:25;;;;;;;93.25;45.40;;;;;;;0.36;100.00;100617.41;5007467;28;20042;-62
2022/02/16 04:38:53;;;;;;;90.60;42.58;;;;;;;1.15;100.00;100690.06;4992822;28;20106;-62
2022/02/16 04:41:18;;;;;;;81.57;42.83;;;;;;;1.16;100.00;100681.75;4992453;28;20041;-63
2022/02/16 04:43:43;;;;;;;92.00;47.92;;;;;;;1.04;100.00;100692.34;4992460;28;20373;-63
2022/02/16 04:46:09;;;;;;;78.97;44.90;;;;;;;0.71;100.00;100611.56;4992610;28;20431;-61
2022/02/16 04:48:35;;;;;;;72.50;40.97;;;;;;;1.09;100.00;100690.78;4992685;28;20038;-61
2022/02/16 04:51:01;;;;;;;68.10;37.38;;;;;;;0.82;100.00;100701.03;4978481;28;20031;-61
2022/02/16 04:53:28;;;;;;;72.82;39.58;;;;;;;0.86;100.00;100691.94;4978046;28;20025;-63
2022/02/16 04:55:53;;;;;;;62.95;34.00;;;;;;;-0.17;100.00;100564.53;4992543;28;20031;-62
2022/02/16 04:58:18;;;;;;;63.60;34.03;;;;;;;0.32;100.00;100623.16;4992054;28;20165;-62
2022/02/16 05:00:44;;;;;;;58.70;33.45;;;;;;;0.21;100.00;100629.56;4992283;28;20026;-62
2022/02/16 05:03:09;;;;;;;55.47;31.50;;;;;;;0.61;100.00;100690.56;4995439;28;20049;-61
2022/02/16 05:05:35;;;;;;;73.32;34.08;;;;;;;0.96;100.00;100703.00;5011606;28;20026;-62
2022/02/16 05:08:00;;;;;;;87.60;38.88;;;;;;;0.76;100.00;100710.03;5011909;28;20030;-61
2022/02/16 05:10:26;;;;;;;72.38;34.00;;;;;;;0.40;100.00;100677.53;5011604;28;20458;-62
2022/02/16 05:12:51;;;;;;;91.88;36.40;;;;;;;0.14;100.00;100638.53;5009685;28;20121;-61
2022/02/16 05:15:17;;;;;;;114.15;42.83;;;;;;;0.67;100.00;100707.34;5011651;28;20036;-61
2022/02/16 05:17:42;;;;;;;106.68;42.80;;;;;;;0.64;100.00;100678.09;5011704;28;20109;-62
2022/02/16 05:20:08;;;;;;;128.93;49.00;;;;;;;0.36;100.00;100695.75;5010949;28;20038;-61
2022/02/16 05:22:34;;;;;;;138.65;50.58;;;;;;;0.01;100.00;100601.59;5011444;28;20036;-61
2022/02/16 05:25:00;;;;;;;132.32;50.15;;;;;;;1.27;100.00;100710.38;5007251;28;20038;-62
2022/02/16 05:27:25;;;;;;;151.57;60.28;;;;;;;0.42;100.00;100700.06;4991784;28;20038;-63
2022/02/16 05:29:51;;;;;;;140.63;55.28;;;;;;;1.31;100.00;100702.06;4990481;28;20033;-62
2022/02/16 05:32:16;;;;;;;135.32;54.85;;;;;;;0.73;100.00;100697.47;4991864;28;20104;-62
2022/02/16 05:34:41;;;;;;;134.88;54.53;;;;;;;1.13;100.00;100687.50;4990989;28;20480;-62
2022/02/16 05:37:07;;;;;;;132.82;54.67;;;;;;;1.06;100.00;100684.84;4990871;28;20492;-62
2022/02/16 05:39:32;;;;;;;141.98;57.10;;;;;;;0.95;100.00;100632.09;5006213;28;20065;-63
2022/02/16 05:41:58;;;;;;;146.50;57.25;;;;;;;1.57;100.00;100691.78;4990567;28;20577;-63
2022/02/16 05:44:23;;;;;;;156.88;71.65;;;;;;;0.92;100.00;100644.53;5005575;28;20026;-63
2022/02/16 05:46:48;;;;;;;157.30;73.32;;;;;;;0.99;100.00;100633.81;4991730;28;20034;-63
2022/02/16 05:49:14;;;;;;;139.00;46.67;;;;;;;4.63;100.00;100646.44;4990234;28;20041;-61
2022/02/16 05:51:39;;;;;;;158.85;64.20;;;;;;;1.58;100.00;100657.56;4989678;28;20398;-61
2022/02/16 05:54:05;;;;;;;147.77;59.75;;;;;;;1.21;100.00;100701.03;5005195;28;20042;-62
2022/02/16 05:56:32;;;;;;;166.65;72.10;;;;;;;0.99;100.00;100690.56;4989819;28;20041;-63
2022/02/16 05:58:58;;;;;;;155.68;67.75;;;;;;;1.44;100.00;100704.03;4987774;28;20049;-63
2022/02/16 06:01:24;;;;;;;144.43;62.50;;;;;;;0.98;100.00;100632.16;4989310;28;20423;-63
2022/02/16 06:03:49;;;;;;;134.30;57.65;;;;;;;1.70;100.00;100703.72;5004391;28;20523;-62
2022/02/16 06:06:16;;;;;;;164.75;46.28;;;;;;;1.13;100.00;100699.22;4989738;28;20102;-62
2022/02/16 06:08:42;;;;;;;117.65;46.55;;;;;;;1.09;100.00;100637.38;4989571;28;20030;-62
2022/02/16 06:11:10;;;;;;;113.80;46.35;;;;;;;1.33;100.00;100690.44;4989602;28;20030;-63
2022/02/16 06:13:35;;;;;;;112.10;49.17;;;;;;;1.16;100.00;100616.66;4990119;28;20046;-62
2022/02/16 06:16:00;;;;;;;154.75;63.50;;;;;;;0.89;100.00;100652.81;4990140;28;20073;-63
2022/02/16 06:18:26;;;;;;;208.02;99.45;;;;;;;1.29;100.00;100714.56;4989670;28;20476;-63
2022/02/16 06:20:51;;;;;;;147.30;52.67;;;;;;;1.31;100.00;100710.44;4989887;28;20034;-63
2022/02/16 06:23:17;;;;;;;180.35;57.58;;;;;;;1.25;100.00;100710.31;4988356;28;20029;-64
2022/02/16 06:25:42;;;;;;;142.27;58.00;;;;;;;1.39;100.00;100701.44;4990744;28;20034;-64
2022/02/16 06:28:08;;;;;;;160.15;68.60;;;;;;;1.37;100.00;100652.97;4991208;28;20031;-64
2022/02/16 06:30:34;;;;;;;129.07;58.28;;;;;;;1.58;100.00;100680.09;4991152;28;20077;-63
2022/02/16 06:33:00;;;;;;;133.15;56.10;;;;;;;1.38;100.00;100659.69;4990957;28;20030;-64
2022/02/16 06:35:25;;;;;;;139.73;57.42;;;;;;;0.79;100.00;100590.03;4990974;28;20038;-63
2022/02/16 06:37:51;;;;;;;151.77;62.40;;;;;;;1.39;100.00;100705.59;4990947;28;20034;-63
2022/02/16 06:40:16;;;;;;;141.48;57.50;;;;;;;1.19;100.00;100640.09;5005582;28;20031;-64
2022/02/16 06:42:42;;;;;;;170.30;63.80;;;;;;;0.88;100.00;100640.25;4990968;28;20101;-63
2022/02/16 06:45:09;;;;;;;142.00;61.53;;;;;;;1.38;100.00;100654.69;4991100;28;20034;-63
2022/02/16 06:47:35;;;;;;;126.00;54.13;;;;;;;1.36;100.00;100685.50;4990601;28;20034;-63
2022/02/16 06:50:01;;;;;;;113.97;55.70;;;;;;;1.62;100.00;100716.94;5005905;28;20427;-63
2022/02/16 06:52:26;;;;;;;119.78;55.83;;;;;;;1.34;100.00;100657.94;4990796;28;20038;-62
2022/02/16 06:54:52;;;;;;;119.22;54.15;;;;;;;1.54;100.00;100659.16;4990398;28;20027;-62
2022/02/16 06:57:17;;;;;;;116.72;52.88;;;;;;;2.14;100.00;100712.06;4991148;28;20490;-62
2022/02/16 06:59:43;;;;;;;127.78;57.72;;;;;;;1.53;100.00;100670.00;4989301;28;20092;-63
2022/02/16 07:02:09;;;;;;;130.27;68.03;;;;;;;2.12;100.00;100711.19;4990566;28;20054;-62
2022/02/16 07:04:34;;;;;;;121.63;62.88;;;;;;;2.07;100.00;100649.25;4990701;28;20026;-62
2022/02/16 07:06:59;;;;;;;132.45;67.03;;;;;;;2.15;100.00;100655.22;4990919;28;20042;-62
2022/02/16 07:09:25;;;;;;;145.57;74.88;;;;;;;2.58;100.00;100670.13;4990351;28;20113;-62
2022/02/16 07:11:52;;;;;;;129.85;64.40;;;;;;;2.25;100.00;100719.78;4989504;28;20022;-62
2022/02/16 07:14:22;;;;;;;143.90;68.55;;;;;;;2.44;100.00;100694.16;4989403;28;20504;-62
2022/02/16 07:16:48;;;;;;;156.80;80.00;;;;;;;2.27;100.00;100690.53;4989214;28;20057;-62
2022/02/16 07:19:13;;;;;;;256.10;136.23;;;;;;;2.25;100.00;100660.44;4990550;28;20460;-63
2022/02/16 07:21:39;;;;;;;205.70;108.72;;;;;;;2.31;100.00;100664.69;4990631;28;20411;-62
2022/02/16 07:24:05;;;;;;;190.98;97.15;;;;;;;2.63;100.00;100714.56;4990703;28;20497;-62
2022/02/16 07:26:31;;;;;;;188.73;104.30;;;;;;;1.77;100.00;100602.81;4990568;28;20034;-62
2022/02/16 07:28:56;;;;;;;211.50;115.22;;;;;;;2.87;100.00;100704.06;4989198;28;20038;-62
2022/02/16 07:31:22;;;;;;;190.80;106.63;;;;;;;2.77;100.00;100706.41;4990385;28;20505;-62
2022/02/16 07:33:47;;;;;;;184.13;102.13;;;;;;;3.12;100.00;100706.09;4990366;28;20033;-62
2022/02/16 07:36:13;;;;;;;183.75;105.05;;;;;;;2.89;100.00;100643.84;4993122;28;20026;-62
2022/02/16 07:38:38;;;;;;;173.40;100.72;;;;;;;3.00;100.00;100698.38;5008617;28;20088;-63
2022/02/16 07:41:04;;;;;;;158.18;94.30;;;;;;;3.22;100.00;100697.84;4993980;28;20038;-62
2022/02/16 07:43:29;;;;;;;167.60;99.07;;;;;;;2.55;100.00;100630.81;4994005;28;20463;-62
2022/02/16 07:45:55;;;;;;;165.10;94.82;;;;;;;2.88;100.00;100612.84;4993409;28;20037;-62
2022/02/16 07:48:21;;;;;;;167.35;87.40;;;;;;;3.11;100.00;100608.13;4993740;28;20113;-62
2022/02/16 07:50:48;;;;;;;192.10;109.43;;;;;;;3.72;100.00;100675.00;4993673;28;20030;-63
2022/02/16 07:53:14;;;;;;;160.05;82.93;;;;;;;3.66;100.00;100677.44;4993405;28;20081;-62
2022/02/16 07:55:41;;;;;;;150.20;73.97;;;;;;;3.81;100.00;100685.13;4994069;28;20041;-62
2022/02/16 07:58:08;;;;;;;151.35;77.00;;;;;;;3.59;100.00;100673.16;4993427;28;20061;-62
2022/02/16 08:00:35;;;;;;;142.63;59.42;;;;;;;3.69;100.00;100667.41;4993451;28;20096;-62
2022/02/16 08:03:00;;;;;;;141.40;57.97;;;;;;;3.87;100.00;100640.78;4993279;28;20075;-62
2022/02/16 08:05:26;;;;;;;105.68;39.67;;;;;;;3.46;100.00;100615.25;4993358;28;20023;-62
2022/02/16 08:07:51;;;;;;;104.55;38.53;;;;;;;3.75;100.00;100648.22;4993208;28;20037;-63
2022/02/16 08:10:17;;;;;;;136.38;52.65;;;;;;;4.22;100.00;100662.06;4993491;28;20037;-63
2022/02/16 08:12:52;;;;;;;149.07;53.85;;;;;;;4.27;100.00;100612.63;4993262;28;20484;-63
2022/02/16 08:15:17;;;;;;;116.13;45.10;;;;;;;4.06;100.00;100640.13;4993365;28;20078;-63
2022/02/16 08:17:43;;;;;;;106.93;45.45;;;;;;;4.16;100.00;100633.53;4993282;28;20056;-63
2022/02/16 08:20:10;;;;;;;117.65;44.85;;;;;;;3.84;100.00;100610.59;4992938;28;20485;-63
2022/02/16 08:22:36;;;;;;;114.75;45.90;;;;;;;3.88;100.00;100616.50;4992955;28;20044;-63
2022/02/16 08:25:06;;;;;;;115.60;46.92;;;;;;;4.42;100.00;100606.84;4993306;28;20038;-63
2022/02/16 08:27:32;;;;;;;108.35;47.30;;;;;;;4.58;100.00;100653.97;4993063;28;20088;-63
2022/02/16 08:29:58;;;;;;;128.90;52.42;;;;;;;4.43;100.00;100577.50;4993245;28;20034;-65
2022/02/16 08:32:23;;;;;;;125.30;57.50;;;;;;;5.06;100.00;100581.19;4991492;28;20549;-62
2022/02/16 08:34:49;;;;;;;140.10;62.55;;;;;;;4.69;100.00;100544.09;5007770;28;20030;-64
2022/02/16 08:37:15;;;;;;;155.20;75.10;;;;;;;4.74;100.00;100537.41;4992719;28;20488;-63
2022/02/16 08:39:40;;;;;;;128.60;61.17;;;;;;;5.17;100.00;100651.78;4992582;28;20173;-63
2022/02/16 08:42:06;;;;;;;136.40;65.45;;;;;;;5.42;100.00;100661.13;4992772;28;20077;-62
2022/02/16 08:44:31;;;;;;;132.63;58.20;;;;;;;5.25;100.00;100630.81;4991472;28;20485;-63
2022/02/16 08:46:57;;;;;;;113.22;52.75;;;;;;;5.48;100.00;100643.50;4990859;28;20034;-63
2022/02/16 08:49:23;;;;;;;74.88;37.70;;;;;;;4.65;100.00;100576.81;4992565;28;20030;-62
2022/02/16 08:51:49;;;;;;;85.05;40.97;;;;;;;4.54;100.00;100566.66;4992391;28;20026;-62
2022/02/16 08:54:14;;;;;;;96.60;45.60;;;;;;;5.14;100.00;100574.50;4992588;28;20026;-63
2022/02/16 08:56:40;;;;;;;116.18;54.28;;;;;;;4.80;100.00;100594.50;4992545;28;20030;-62
2022/02/16 08:59:06;;;;;;;117.57;57.47;;;;;;;5.37;100.00;100594.72;4992615;28;20058;-62
2022/02/16 09:01:32;;;;;;;100.28;53.30;;;;;;;5.85;100.00;100622.63;4992037;28;20026;-62
2022/02/16 09:04:05;;;;;;;80.43;43.13;;;;;;;5.74;100.00;100576.34;4992315;28;20022;-65
2022/02/16 09:06:31;;;;;;;84.53;43.67;;;;;;;5.67;100.00;100596.47;4992392;28;20038;-64
2022/02/16 09:08:57;;;;;;;89.07;45.42;;;;;;;6.24;100.00;100561.19;4992263;28;20030;-64
2022/02/16 09:11:23;;;;;;;88.38;47.15;;;;;;;6.30;100.00;100600.75;4992577;28;20082;-63
2022/02/16 09:13:48;;;;;;;83.90;45.53;;;;;;;6.30;100.00;100557.84;4992236;28;20137;-65
2022/02/16 09:16:14;;;;;;;83.20;45.72;;;;;;;6.40;100.00;100557.00;4991881;28;20026;-63
2022/02/16 09:18:39;;;;;;;85.68;44.53;;;;;;;6.65;100.00;100615.03;4992088;28;20042;-63
2022/02/16 09:21:08;;;;;;;79.75;42.35;;;;;;;7.02;100.00;100630.94;4991898;28;20039;-63
2022/02/16 09:23:35;;;;;;;84.00;43.65;;;;;;;6.20;100.00;100632.72;4992091;28;20014;-62
2022/02/16 09:26:02;;;;;;;86.80;44.25;;;;;;;6.79;100.00;100620.88;4991909;28;20113;-63
2022/02/16 09:28:28;;;;;;;83.13;42.65;;;;;;;7.01;100.00;100621.69;4991770;28;20030;-62
2022/02/16 09:30:55;;;;;;;77.70;42.85;;;;;;;7.37;100.00;100620.69;5006833;28;20074;-63
2022/02/16 09:33:21;;;;;;;72.72;36.92;;;;;;;7.00;100.00;100610.72;4991764;28;20125;-62
2022/02/16 09:35:46;;;;;;;63.75;31.85;;;;;;;7.08;100.00;100602.25;4991779;28;20620;-62
2022/02/16 09:38:13;;;;;;;61.33;32.45;;;;;;;5.99;100.00;100546.94;4991849;28;20134;-62
2022/02/16 09:40:39;;;;;;;58.20;33.22;;;;;;;6.77;100.00;100572.03;4990348;28;20080;-62
2022/02/16 09:43:04;;;;;;;66.75;36.53;;;;;;;6.86;100.00;100574.53;4991433;28;20034;-63
2022/02/16 09:45:31;;;;;;;85.63;41.55;;;;;;;6.85;100.00;100592.25;4991495;28;20030;-63
2022/02/16 09:47:57;;;;;;;79.50;43.58;;;;;;;6.62;100.00;100482.81;4990060;28;20108;-62
2022/02/16 09:50:22;;;;;;;75.97;42.22;;;;;;;7.25;100.00;100499.38;4991688;28;20532;-62
2022/02/16 09:52:48;;;;;;;78.30;42.22;;;;;;;7.73;100.00;100517.56;4990133;28;20129;-62
2022/02/16 09:55:14;;;;;;;95.95;49.22;;;;;;;7.05;100.00;100523.91;4991521;28;20079;-62
2022/02/16 09:57:40;;;;;;;84.10;44.83;;;;;;;7.43;100.00;100522.84;4990532;28;20034;-63
2022/02/16 10:00:07;;;;;;;63.13;35.63;;;;;;;7.52;100.00;100597.84;4989987;28;20088;-63
2022/02/16 10:02:37;;;;;;;64.47;35.22;;;;;;;7.59;100.00;100580.06;4989684;28;20433;-62
2022/02/16 10:05:06;;;;;;;51.90;31.48;;;;;;;7.33;100.00;100517.88;4989709;28;20453;-61
2022/02/16 10:07:34;;;;;;;53.13;31.15;;;;;;;8.07;100.00;100551.03;4990568;28;20018;-62
2022/02/16 10:10:20;;;;;;;52.08;28.60;;;;;;;8.07;100.00;100563.69;4990420;28;20037;-62
2022/02/16 10:12:51;;;;;;;52.83;31.13;;;;;;;7.70;100.00;100558.09;4990952;28;20465;-61
2022/02/16 10:15:37;;;;;;;48.70;28.15;;;;;;;7.86;100.00;100564.69;4990880;28;20042;-62
2022/02/16 10:18:09;;;;;;;48.97;28.58;;;;;;;8.19;100.00;100558.53;4987177;28;20054;-62
2022/02/16 10:20:35;;;;;;;59.78;35.45;;;;;;;9.51;100.00;100532.44;4990877;28;20036;-62
2022/02/16 10:23:00;;;;;;;52.35;30.38;;;;;;;8.66;100.00;100533.56;4991118;28;20464;-62
2022/02/16 10:25:32;;;;;;;55.40;32.17;;;;;;;8.68;100.00;100556.34;4990788;28;20062;-63
2022/02/16 10:28:10;;;;;;;56.40;34.28;;;;;;;8.75;100.00;100558.81;4991227;28;20085;-62
2022/02/16 10:30:38;;;;;;;44.63;27.83;;;;;;;8.36;100.00;100522.94;4989807;28;20149;-62
2022/02/16 10:33:34;;;;;;;45.33;28.02;;;;;;;7.99;100.00;100551.94;4990896;28;20121;-62
2022/02/16 10:36:02;;;;;;;51.08;30.88;;;;;;;8.39;100.00;100544.00;4990550;28;20034;-62
2022/02/16 10:38:29;;;;;;;50.65;29.48;;;;;;;8.09;100.00;100485.19;4991069;28;20030;-62
2022/02/16 10:41:16;;;;;;;50.10;30.92;;;;;;;9.59;100.00;100469.72;4990861;28;20433;-61
2022/02/16 10:43:41;;;;;;;51.78;32.40;;;;;;;9.78;100.00;100521.03;4990959;28;20041;-63
2022/02/16 10:46:17;;;;;;;45.65;27.48;;;;;;;7.80;100.00;100477.88;4990864;28;20034;-64
2022/02/16 10:48:43;;;;;;;49.67;30.45;;;;;;;8.06;100.00;100498.69;4990957;28;20041;-62
2022/02/16 10:51:19;;;;;;;47.60;28.55;;;;;;;8.05;100.00;100479.31;4990935;28;20081;-62
2022/02/16 10:53:44;;;;;;;49.70;32.53;;;;;;;8.77;100.00;100479.38;4990766;28;20023;-62
2022/02/16 10:56:10;;;;;;;56.08;33.95;;;;;;;8.98;100.00;100538.25;4990828;28;20030;-62
2022/02/16 10:58:36;;;;;;;54.63;35.05;;;;;;;9.01;100.00;100459.63;4989503;28;20188;-64
2022/02/16 11:01:01;;;;;;;47.30;30.77;;;;;;;9.02;100.00;100457.91;4990184;28;20509;-62
2022/02/16 11:03:33;;;;;;;48.28;32.50;;;;;;;9.43;100.00;100513.94;4990873;28;20448;-61